Time;durP1;ratioP1;P1;durP2;ratioP2;P2;SDS_P1;SDS_P2;PMS_P1;PMS_P2;Temp;Humidity;BMP_temperature;BMP_pressure;BME280_temperature;BME280_humidity;BME280_pressure;Samples;Min_cycle;Max_cycle;Signal;HPM_P1;HPM_P2
2024/01/19 00:01:50;;;;;;;19.45;11.73;;;;;;;-2.65;100.00;101325.97;5069433;28;20051;-77
2024/01/19 00:04:15;;;;;;;18.10;10.57;;;;;;;-2.61;100.00;101321.38;5069752;28;20111;-77
2024/01/19 00:06:41;;;;;;;23.85;10.90;;;;;;;-2.61;100.00;101324.00;5069640;28;20037;-77
2024/01/19 00:09:07;;;;;;;20.23;10.82;;;;;;;-2.68;100.00;101320.09;5069797;28;20033;-77
2024/01/19 00:11:32;;;;;;;21.98;10.18;;;;;;;-2.67;100.00;101317.41;5069761;28;20032;-77
2024/01/19 00:13:57;;;;;;;20.90;10.55;;;;;;;-2.68;100.00;101322.72;5069910;28;20444;-77
2024/01/19 00:16:23;;;;;;;18.95;10.63;;;;;;;-2.76;100.00;101323.19;5069821;28;20020;-77
2024/01/19 00:18:48;;;;;;;19.63;10.90;;;;;;;-2.74;100.00;101321.34;5069628;28;20059;-77
2024/01/19 00:21:15;;;;;;;17.85;10.30;;;;;;;-2.79;100.00;101320.78;5069759;28;20460;-77
2024/01/19 00:23:40;;;;;;;18.38;9.98;;;;;;;-2.85;100.00;101326.41;5069422;28;20543;-77
2024/01/19 00:26:06;;;;;;;21.20;11.18;;;;;;;-2.90;100.00;101321.47;5069513;28;20132;-77
2024/01/19 00:28:32;;;;;;;28.38;11.90;;;;;;;-3.00;100.00;101316.94;5069298;28;20139;-77
2024/01/19 00:30:57;;;;;;;20.02;10.77;;;;;;;-3.02;100.00;101327.47;5069613;28;20089;-77
2024/01/19 00:33:22;;;;;;;20.25;11.38;;;;;;;-3.05;100.00;101329.44;5069550;28;20147;-78
2024/01/19 00:35:48;;;;;;;18.17;10.43;;;;;;;-3.15;100.00;101319.59;5069649;28;20025;-77
2024/01/19 00:38:13;;;;;;;21.85;10.90;;;;;;;-3.12;100.00;101332.47;5069511;28;20031;-77
2024/01/19 00:40:38;;;;;;;15.73;8.93;;;;;;;-3.11;100.00;101338.50;5069536;28;20028;-77
2024/01/19 00:43:04;;;;;;;17.02;8.95;;;;;;;-3.12;100.00;101345.50;5068230;28;20036;-77
2024/01/19 00:45:29;;;;;;;21.95;10.60;;;;;;;-3.16;100.00;101340.56;5069201;28;20032;-77
2024/01/19 00:47:54;;;;;;;18.48;9.45;;;;;;;-3.21;100.00;101340.00;5068217;28;20404;-77
2024/01/19 00:50:20;;;;;;;19.00;9.82;;;;;;;-3.16;100.00;101359.66;5068296;28;20032;-77
2024/01/19 00:52:45;;;;;;;16.10;10.40;;;;;;;-3.16;100.00;101367.47;5069550;28;20545;-77
2024/01/19 00:55:11;;;;;;;20.67;10.60;;;;;;;-3.14;100.00;101362.19;5069561;28;20040;-77
2024/01/19 00:57:37;;;;;;;22.15;10.65;;;;;;;-3.09;100.00;101360.13;5068447;28;20107;-77
2024/01/19 01:00:03;;;;;;;25.50;9.27;;;;;;;-3.05;100.00;101368.59;5069347;28;20040;-77
2024/01/19 01:02:29;;;;;;;19.13;8.93;;;;;;;-2.93;100.00;101376.50;5069080;28;20032;-77
2024/01/19 01:04:55;;;;;;;21.77;10.55;;;;;;;-2.92;100.00;101379.94;5069338;28;20047;-78
2024/01/19 01:07:21;;;;;;;23.20;10.85;;;;;;;-2.94;100.00;101380.00;5067715;28;20029;-77
2024/01/19 01:09:47;;;;;;;17.55;8.55;;;;;;;-2.97;100.00;101374.16;5069273;28;20056;-77
2024/01/19 01:12:13;;;;;;;14.80;8.50;;;;;;;-2.98;100.00;101375.09;5067563;28;20109;-77
2024/01/19 01:14:38;;;;;;;17.70;8.25;;;;;;;-2.97;100.00;101371.56;5072492;28;20027;-77
2024/01/19 01:17:04;;;;;;;18.92;9.38;;;;;;;-2.95;100.00;101369.69;5073068;28;20032;-78
2024/01/19 01:19:29;;;;;;;16.73;8.93;;;;;;;-2.86;100.00;101374.31;5071760;28;20043;-78
2024/01/19 01:21:55;;;;;;;18.20;10.57;;;;;;;-2.78;100.00;101368.59;5071588;28;20118;-77
2024/01/19 01:24:22;;;;;;;14.38;7.95;;;;;;;-2.76;100.00;101351.09;5072861;28;20025;-77
2024/01/19 01:26:47;;;;;;;15.27;8.23;;;;;;;-2.62;100.00;101371.06;5071304;28;20131;-77
2024/01/19 01:29:13;;;;;;;12.45;8.07;;;;;;;-2.61;100.00;101373.59;5072688;28;20046;-77
2024/01/19 01:31:38;;;;;;;18.52;7.53;;;;;;;-2.59;100.00;101392.63;5072746;28;20067;-77
2024/01/19 01:34:04;;;;;;;17.27;8.45;;;;;;;-2.54;100.00;101414.06;5072506;28;20063;-77
2024/01/19 01:36:30;;;;;;;16.20;8.05;;;;;;;-2.48;100.00;101397.97;5072722;28;20390;-78
2024/01/19 01:38:55;;;;;;;14.07;7.85;;;;;;;-2.41;100.00;101390.59;5072597;28;20120;-78
2024/01/19 01:41:21;;;;;;;14.15;8.15;;;;;;;-2.34;100.00;101384.03;5071325;28;20036;-78
2024/01/19 01:43:46;;;;;;;16.90;7.75;;;;;;;-2.31;100.00;101378.59;5072035;28;20503;-78
2024/01/19 01:46:12;;;;;;;25.83;8.25;;;;;;;-2.36;100.00;101374.63;5072060;28;20983;-78
2024/01/19 01:48:37;;;;;;;16.25;8.13;;;;;;;-2.37;100.00;101378.19;5071016;28;20033;-78
2024/01/19 01:51:04;;;;;;;15.55;7.75;;;;;;;-2.45;100.00;101382.13;5072528;28;20028;-78
2024/01/19 01:53:30;;;;;;;12.68;7.32;;;;;;;-2.57;100.00;101382.06;5072199;28;20392;-78
2024/01/19 01:55:56;;;;;;;16.70;8.35;;;;;;;-2.62;100.00;101389.34;5072431;28;20032;-78
2024/01/19 01:58:22;;;;;;;16.05;7.78;;;;;;;-2.64;100.00;101399.91;5070603;28;20479;-78
2024/01/19 02:00:48;;;;;;;17.92;8.50;;;;;;;-2.65;100.00;101398.22;5072140;28;20068;-78
2024/01/19 02:03:14;;;;;;;16.23;7.32;;;;;;;-2.70;100.00;101393.31;5072104;28;20024;-78
2024/01/19 02:05:39;;;;;;;16.55;7.10;;;;;;;-2.63;100.00;101395.53;5072466;28;20032;-78
2024/01/19 02:08:04;;;;;;;15.15;8.30;;;;;;;-2.57;100.00;101403.78;5053921;28;20036;-78
2024/01/19 02:10:30;;;;;;;18.48;8.10;;;;;;;-2.56;100.00;101409.88;5071976;28;20034;-78
2024/01/19 02:12:55;;;;;;;19.10;8.00;;;;;;;-2.58;100.00;101407.34;5072367;28;20036;-78
2024/01/19 02:15:22;;;;;;;18.15;6.68;;;;;;;-2.60;100.00;101417.03;5072126;28;20033;-78
2024/01/19 02:17:52;;;;;;;11.40;6.88;;;;;;;-2.63;100.00;101419.84;5072011;28;20013;-78
2024/01/19 02:20:18;;;;;;;17.58;7.60;;;;;;;-2.69;100.00;101410.63;5071993;28;20036;-78
2024/01/19 02:22:44;;;;;;;19.27;7.20;;;;;;;-2.68;100.00;101427.97;5071783;28;20025;-78
2024/01/19 02:25:11;;;;;;;15.35;7.30;;;;;;;-2.79;100.00;101419.16;5071389;28;20050;-78
2024/01/19 02:27:37;;;;;;;15.65;7.78;;;;;;;-2.81;100.00;101432.28;5070015;28;20051;-78
2024/01/19 02:30:04;;;;;;;13.45;7.38;;;;;;;-2.88;100.00;101436.22;5071436;28;20032;-78
2024/01/19 02:32:29;;;;;;;15.95;7.70;;;;;;;-2.96;100.00;101431.50;5071677;28;20025;-78
2024/01/19 02:34:54;;;;;;;17.52;7.70;;;;;;;-2.99;100.00;101441.25;5071563;28;20134;-78
2024/01/19 02:37:20;;;;;;;12.25;7.72;;;;;;;-3.05;100.00;101439.03;5070059;28;20035;-78
2024/01/19 02:39:46;;;;;;;15.30;6.85;;;;;;;-3.16;100.00;101432.69;5071578;28;20099;-77
2024/01/19 02:42:11;;;;;;;9.68;5.80;;;;;;;-3.18;100.00;101444.16;5071407;28;20028;-78
2024/01/19 02:44:36;;;;;;;12.25;6.82;;;;;;;-3.20;100.00;101454.66;5071302;28;20028;-78
2024/01/19 02:47:02;;;;;;;12.68;6.43;;;;;;;-3.27;100.00;101455.16;5071177;28;20087;-78
2024/01/19 02:49:28;;;;;;;14.98;7.05;;;;;;;-3.23;100.00;101462.69;5071304;28;20071;-78
2024/01/19 02:51:53;;;;;;;9.90;5.25;;;;;;;-3.29;100.00;101449.19;5071241;28;20514;-78
2024/01/19 02:54:19;;;;;;;15.07;6.97;;;;;;;-3.35;100.00;101453.00;5069875;28;20039;-78
2024/01/19 02:56:44;;;;;;;16.30;6.88;;;;;;;-3.25;100.00;101466.31;5071196;28;20039;-78
2024/01/19 02:59:10;;;;;;;19.60;7.03;;;;;;;-3.24;100.00;101468.00;5069844;28;20086;-78
2024/01/19 03:01:35;;;;;;;16.70;6.95;;;;;;;-3.24;100.00;101466.25;5070983;28;20029;-78
2024/01/19 03:04:02;;;;;;;14.90;6.05;;;;;;;-3.27;100.00;101469.03;5070900;28;20071;-78
2024/01/19 03:06:27;;;;;;;13.27;6.88;;;;;;;-3.24;100.00;101481.06;5070402;28;20507;-78
2024/01/19 03:08:52;;;;;;;10.65;6.25;;;;;;;-3.27;100.00;101476.84;5070864;28;20032;-78
2024/01/19 03:11:18;;;;;;;14.80;6.13;;;;;;;-3.27;100.00;101474.25;5070753;28;20082;-78
2024/01/19 03:13:43;;;;;;;12.90;6.45;;;;;;;-3.35;100.00;101469.50;5069596;28;20043;-78
2024/01/19 03:16:08;;;;;;;11.70;5.95;;;;;;;-3.34;100.00;101465.09;5069493;28;20067;-78
2024/01/19 03:18:34;;;;;;;13.48;6.00;;;;;;;-3.44;100.00;101453.53;5058215;28;20043;-78
2024/01/19 03:20:59;;;;;;;13.52;5.88;;;;;;;-3.32;100.00;101469.31;5070476;28;20033;-78
2024/01/19 03:23:24;;;;;;;11.10;5.78;;;;;;;-3.34;100.00;101472.94;5070414;28;20107;-78
2024/01/19 03:25:50;;;;;;;12.38;6.45;;;;;;;-3.32;100.00;101471.06;5070487;28;20024;-78
2024/01/19 03:28:16;;;;;;;12.75;6.55;;;;;;;-3.34;100.00;101472.94;5070359;28;20054;-78
2024/01/19 03:30:41;;;;;;;9.65;5.35;;;;;;;-3.29;100.00;101483.09;5070475;28;20032;-78
2024/01/19 03:33:07;;;;;;;16.38;6.38;;;;;;;-3.29;100.00;101483.94;5070426;28;20387;-78
2024/01/19 03:35:32;;;;;;;13.48;6.05;;;;;;;-3.33;100.00;101479.81;5069807;28;20055;-78
2024/01/19 03:37:57;;;;;;;13.07;6.05;;;;;;;-3.24;100.00;101483.66;5070326;28;20492;-78
2024/01/19 03:40:23;;;;;;;12.18;5.15;;;;;;;-3.23;100.00;101470.50;5070245;28;20070;-78
2024/01/19 03:42:48;;;;;;;14.20;6.50;;;;;;;-3.20;100.00;101478.16;5070400;28;20078;-78
2024/01/19 03:45:13;;;;;;;15.63;8.60;;;;;;;-3.20;100.00;101475.53;5068873;28;20114;-78
2024/01/19 03:47:39;;;;;;;12.65;5.95;;;;;;;-3.17;100.00;101487.56;5069833;28;20036;-78
2024/01/19 03:50:05;;;;;;;14.25;6.97;;;;;;;-3.19;100.00;101490.28;5068703;28;20036;-78
2024/01/19 03:52:32;;;;;;;11.73;6.38;;;;;;;-3.18;100.00;101494.56;5070057;28;20117;-78
2024/01/19 03:54:58;;;;;;;14.00;6.30;;;;;;;-3.21;100.00;101488.69;5069994;28;20085;-78
2024/01/19 03:57:23;;;;;;;12.70;6.72;;;;;;;-3.29;100.00;101470.88;5070136;28;20115;-78
2024/01/19 03:59:48;;;;;;;10.82;6.32;;;;;;;-3.27;100.00;101474.25;5070100;28;20078;-78
2024/01/19 04:02:14;;;;;;;14.60;7.32;;;;;;;-3.24;100.00;101483.66;5068681;28;20056;-78
2024/01/19 04:04:39;;;;;;;12.77;6.82;;;;;;;-3.21;100.00;101483.47;5069770;28;20033;-78
2024/01/19 04:07:05;;;;;;;13.50;7.15;;;;;;;-3.26;100.00;101475.09;5069755;28;20434;-77
2024/01/19 04:09:30;;;;;;;19.63;8.20;;;;;;;-3.25;100.00;101485.41;5068642;28;20123;-77
2024/01/19 04:11:55;;;;;;;15.80;7.95;;;;;;;-3.27;100.00;101479.47;5068495;28;20031;-78
2024/01/19 04:14:21;;;;;;;14.75;7.90;;;;;;;-3.17;100.00;101496.25;5068530;28;20033;-77
2024/01/19 04:16:47;;;;;;;13.73;7.15;;;;;;;-3.17;100.00;101498.00;5069737;28;20111;-78
2024/01/19 04:19:12;;;;;;;17.92;9.90;;;;;;;-3.15;100.00;101496.13;5069823;28;20043;-78
2024/01/19 04:21:37;;;;;;;19.33;9.15;;;;;;;-3.12;100.00;101502.03;5069751;28;20028;-78
2024/01/19 04:24:03;;;;;;;14.77;8.15;;;;;;;-3.14;100.00;101500.44;5069914;28;20044;-78
2024/01/19 04:26:29;;;;;;;15.07;8.82;;;;;;;-3.11;100.00;101514.13;5069406;28;20119;-78
2024/01/19 04:28:55;;;;;;;16.50;8.25;;;;;;;-3.08;100.00;101515.72;5069783;28;20507;-78
2024/01/19 04:31:20;;;;;;;18.02;9.65;;;;;;;-3.06;100.00;101523.47;5069578;28;20024;-78
2024/01/19 04:33:46;;;;;;;16.05;9.07;;;;;;;-3.05;100.00;101517.31;5069674;28;20050;-78
2024/01/19 04:36:11;;;;;;;16.90;8.65;;;;;;;-3.10;100.00;101507.97;5069599;28;20397;-78
2024/01/19 04:38:37;;;;;;;18.50;8.63;;;;;;;-3.06;100.00;101524.31;5069739;28;20118;-78
2024/01/19 04:41:03;;;;;;;17.25;8.90;;;;;;;-3.05;100.00;101522.53;5068280;28;20032;-78
2024/01/19 04:43:28;;;;;;;19.58;9.10;;;;;;;-3.05;100.00;101528.56;5069528;28;20051;-77
2024/01/19 04:45:53;;;;;;;16.88;9.43;;;;;;;-3.07;100.00;101530.44;5069667;28;20394;-77
2024/01/19 04:48:19;;;;;;;16.63;8.25;;;;;;;-3.05;100.00;101535.56;5070550;28;20087;-78
2024/01/19 04:50:44;;;;;;;18.13;9.95;;;;;;;-3.06;100.00;101539.94;5073468;28;20028;-78
2024/01/19 04:53:09;;;;;;;19.50;9.57;;;;;;;-3.06;100.00;101547.78;5065668;28;20507;-78
2024/01/19 04:55:35;;;;;;;16.85;8.70;;;;;;;-3.11;100.00;101552.44;5071811;28;20031;-77
2024/01/19 04:58:00;;;;;;;26.33;12.98;;;;;;;-3.16;100.00;101538.81;5073114;28;20023;-78
2024/01/19 05:00:25;;;;;;;18.48;9.93;;;;;;;-3.23;100.00;101535.72;5073315;28;20028;-78
2024/01/19 05:02:51;;;;;;;19.25;11.48;;;;;;;-3.11;100.00;101557.66;5073177;28;20082;-78
2024/01/19 05:05:17;;;;;;;14.27;9.48;;;;;;;-3.13;100.00;101554.28;5073134;28;20040;-78
2024/01/19 05:07:42;;;;;;;21.30;11.82;;;;;;;-3.14;100.00;101548.22;5073077;28;20029;-78
2024/01/19 05:10:09;;;;;;;19.25;9.85;;;;;;;-3.17;100.00;101544.94;5071859;28;20032;-77
2024/01/19 05:12:34;;;;;;;19.42;11.60;;;;;;;-3.24;100.00;101539.28;5072961;28;20056;-78
2024/01/19 05:14:59;;;;;;;20.02;10.27;;;;;;;-3.16;100.00;101549.25;5072900;28;20059;-77
2024/01/19 05:17:25;;;;;;;18.42;9.70;;;;;;;-3.14;100.00;101560.44;5073060;28;20514;-77
2024/01/19 05:19:50;;;;;;;20.85;11.75;;;;;;;-3.20;100.00;101555.56;5072939;28;20028;-77
2024/01/19 05:22:16;;;;;;;20.63;10.38;;;;;;;-3.13;100.00;101580.38;5073021;28;20050;-77
2024/01/19 05:24:41;;;;;;;20.98;12.00;;;;;;;-3.17;100.00;101581.47;5072909;28;20035;-77
2024/01/19 05:27:08;;;;;;;21.63;10.30;;;;;;;-3.18;100.00;101587.63;5070987;28;20064;-78
2024/01/19 05:29:34;;;;;;;24.38;10.77;;;;;;;-3.18;100.00;101596.28;5072757;28;20028;-78
2024/01/19 05:31:59;;;;;;;19.20;10.65;;;;;;;-3.18;100.00;101596.28;5072610;28;20127;-78
2024/01/19 05:34:25;;;;;;;18.65;11.45;;;;;;;-3.19;100.00;101601.63;5072276;28;20600;-78
2024/01/19 05:36:50;;;;;;;19.05;10.93;;;;;;;-3.25;100.00;101602.78;5071354;28;20032;-78
2024/01/19 05:39:16;;;;;;;19.98;10.68;;;;;;;-3.22;100.00;101610.47;5072365;28;20086;-77
2024/01/19 05:41:41;;;;;;;19.38;10.50;;;;;;;-3.23;100.00;101610.53;5072344;28;20162;-78
2024/01/19 05:44:06;;;;;;;18.60;9.75;;;;;;;-3.14;100.00;101616.06;5072403;28;20024;-78
2024/01/19 05:46:32;;;;;;;19.15;11.00;;;;;;;-3.15;100.00;101611.75;5072231;28;20507;-78
2024/01/19 05:48:57;;;;;;;29.35;12.70;;;;;;;-3.01;100.00;101633.59;5072417;28;20491;-78
2024/01/19 05:51:22;;;;;;;25.52;12.60;;;;;;;-2.93;100.00;101636.63;5072353;28;20064;-78
2024/01/19 05:53:48;;;;;;;25.95;11.75;;;;;;;-2.91;100.00;101642.56;5071056;28;20035;-78
2024/01/19 05:56:13;;;;;;;18.13;11.05;;;;;;;-2.84;100.00;101659.56;5072327;28;20043;-78
2024/01/19 05:58:39;;;;;;;16.73;9.27;;;;;;;-2.72;100.00;101689.34;5070113;28;20032;-77
2024/01/19 06:01:05;;;;;;;21.00;12.02;;;;;;;-2.61;100.00;101704.38;5070484;28;20025;-78
2024/01/19 06:03:33;;;;;;;21.75;11.25;;;;;;;-2.58;100.00;101689.34;5070760;28;20454;-78
2024/01/19 06:05:58;;;;;;;28.10;12.25;;;;;;;-2.46;100.00;101695.63;5071946;28;20155;-78
2024/01/19 06:08:23;;;;;;;21.92;12.75;;;;;;;-2.39;100.00;101690.88;5071922;28;20262;-78
2024/01/19 06:10:49;;;;;;;20.83;11.05;;;;;;;-2.35;100.00;101687.16;5071705;28;20143;-78
2024/01/19 06:13:14;;;;;;;24.10;12.43;;;;;;;-2.32;100.00;101694.81;5071807;28;20053;-79
2024/01/19 06:15:39;;;;;;;19.05;10.40;;;;;;;-2.38;100.00;101690.78;5071671;28;20086;-78
2024/01/19 06:18:05;;;;;;;21.30;10.90;;;;;;;-2.38;100.00;101688.19;5070517;28;20082;-77
2024/01/19 06:20:31;;;;;;;20.88;12.43;;;;;;;-2.37;100.00;101696.84;5071715;28;20017;-78
2024/01/19 06:22:56;;;;;;;19.65;10.82;;;;;;;-2.44;100.00;101705.06;5070538;28;20032;-78
2024/01/19 06:25:21;;;;;;;20.73;11.40;;;;;;;-2.48;100.00;101710.53;5071482;28;20114;-78
2024/01/19 06:27:47;;;;;;;21.15;11.93;;;;;;;-2.52;100.00;101707.25;5071319;28;20063;-78
2024/01/19 06:30:12;;;;;;;21.08;12.27;;;;;;;-2.56;100.00;101716.22;5071244;28;20119;-78
2024/01/19 06:32:38;;;;;;;20.30;12.13;;;;;;;-2.61;100.00;101720.88;5071205;28;20028;-78
2024/01/19 06:35:03;;;;;;;22.30;12.20;;;;;;;-2.60;100.00;101721.72;5071348;28;20024;-78
2024/01/19 06:37:29;;;;;;;19.73;12.32;;;;;;;-2.59;100.00;101728.59;5071523;28;20054;-78
2024/01/19 06:39:54;;;;;;;22.73;12.57;;;;;;;-2.57;100.00;101722.34;5071334;28;20032;-78
2024/01/19 06:42:20;;;;;;;21.40;13.00;;;;;;;-2.58;100.00;101712.84;5071124;28;20110;-78
2024/01/19 06:44:45;;;;;;;19.70;11.30;;;;;;;-2.69;100.00;101716.09;5070072;28;20173;-79
2024/01/19 06:47:11;;;;;;;18.00;10.48;;;;;;;-2.72;100.00;101715.44;5069889;28;20391;-78
2024/01/19 06:49:36;;;;;;;21.52;12.48;;;;;;;-2.78;100.00;101713.16;5071389;28;20162;-78
2024/01/19 06:52:05;;;;;;;21.98;11.00;;;;;;;-2.88;100.00;101715.50;5069514;28;20077;-78
2024/01/19 06:54:31;;;;;;;23.63;13.02;;;;;;;-2.99;100.00;101726.53;5071103;28;20479;-78
2024/01/19 06:56:57;;;;;;;19.63;12.50;;;;;;;-3.00;100.00;101739.66;5070677;28;20056;-78
2024/01/19 06:59:22;;;;;;;30.10;13.20;;;;;;;-3.04;100.00;101743.38;5070925;28;20379;-78
2024/01/19 07:01:48;;;;;;;17.80;11.55;;;;;;;-3.14;100.00;101735.25;5070965;28;20047;-78
2024/01/19 07:04:13;;;;;;;27.67;12.10;;;;;;;-3.21;100.00;101741.72;5070757;28;20071;-78
2024/01/19 07:06:38;;;;;;;22.35;13.02;;;;;;;-3.24;100.00;101747.94;5070838;28;20043;-78
2024/01/19 07:09:04;;;;;;;20.10;11.07;;;;;;;-3.28;100.00;101756.03;5070794;28;20511;-78
2024/01/19 07:11:30;;;;;;;20.95;12.27;;;;;;;-3.32;100.00;101765.78;5069575;28;20037;-78
2024/01/19 07:13:56;;;;;;;18.35;10.98;;;;;;;-3.38;100.00;101764.38;5070202;28;20063;-78
2024/01/19 07:16:22;;;;;;;20.27;10.80;;;;;;;-3.41;100.00;101777.53;5070568;28;20064;-78
2024/01/19 07:18:47;;;;;;;20.48;11.32;;;;;;;-3.49;100.00;101774.50;5070760;28;20025;-78
2024/01/19 07:21:12;;;;;;;21.35;12.73;;;;;;;-3.46;100.00;101789.16;5070520;28;20024;-78
2024/01/19 07:23:38;;;;;;;20.92;11.48;;;;;;;-3.52;100.00;101785.13;5070494;28;20028;-78
2024/01/19 07:26:03;;;;;;;21.30;12.73;;;;;;;-3.52;100.00;101791.16;5070057;28;20067;-78
2024/01/19 07:28:29;;;;;;;20.73;11.68;;;;;;;-3.62;100.00;101787.38;5070232;28;20163;-78
2024/01/19 07:30:54;;;;;;;23.33;11.18;;;;;;;-3.65;100.00;101797.13;5069006;28;20380;-78
2024/01/19 07:33:20;;;;;;;19.92;10.75;;;;;;;-3.68;100.00;101792.91;5068763;28;20036;-77
2024/01/19 07:35:45;;;;;;;23.85;12.77;;;;;;;-3.69;100.00;101800.81;5069902;28;20122;-77
2024/01/19 07:38:10;;;;;;;20.95;12.02;;;;;;;-3.70;100.00;101799.97;5070027;28;20036;-78
2024/01/19 07:40:36;;;;;;;18.73;11.63;;;;;;;-3.73;100.00;101804.50;5070110;28;20040;-77
2024/01/19 07:43:02;;;;;;;19.05;11.52;;;;;;;-3.71;100.00;101811.34;5069703;28;20021;-77
2024/01/19 07:45:27;;;;;;;19.75;11.38;;;;;;;-3.69;100.00;101814.72;5069786;28;20029;-77
2024/01/19 07:47:52;;;;;;;20.42;10.82;;;;;;;-3.70;100.00;101805.19;5069078;28;20024;-77
2024/01/19 07:50:18;;;;;;;22.25;11.77;;;;;;;-3.83;100.00;101793.72;5069040;28;20391;-79
2024/01/19 07:52:43;;;;;;;23.10;12.60;;;;;;;-3.76;100.00;101805.50;5069192;28;20041;-77
2024/01/19 07:55:08;;;;;;;20.20;11.35;;;;;;;-3.72;100.00;101820.09;5068046;28;20332;-77
2024/01/19 07:57:34;;;;;;;19.73;11.32;;;;;;;-3.69;100.00;101821.66;5069229;28;20032;-77
2024/01/19 07:59:59;;;;;;;23.15;11.70;;;;;;;-3.66;100.00;101829.34;5069583;28;20028;-77
2024/01/19 08:02:25;;;;;;;22.58;12.82;;;;;;;-3.65;100.00;101828.41;5069631;28;20594;-77
2024/01/19 08:04:50;;;;;;;21.90;13.10;;;;;;;-3.66;100.00;101835.38;5069378;28;20395;-77
2024/01/19 08:07:16;;;;;;;19.05;11.80;;;;;;;-3.62;100.00;101838.66;5069415;28;20067;-77
2024/01/19 08:09:41;;;;;;;20.50;12.15;;;;;;;-3.60;100.00;101836.84;5068598;28;20427;-77
2024/01/19 08:12:06;;;;;;;28.90;13.77;;;;;;;-3.58;100.00;101843.66;5067196;28;20040;-77
2024/01/19 08:14:32;;;;;;;22.50;12.38;;;;;;;-3.56;100.00;101847.03;5069378;28;20044;-77
2024/01/19 08:16:57;;;;;;;18.90;12.02;;;;;;;-3.59;100.00;101843.72;5069188;28;20403;-77
2024/01/19 08:19:23;;;;;;;22.35;12.60;;;;;;;-3.50;100.00;101847.63;5069505;28;20507;-77
2024/01/19 08:21:48;;;;;;;18.80;11.68;;;;;;;-3.48;100.00;101859.66;5067323;28;20119;-77
2024/01/19 08:24:13;;;;;;;22.13;14.20;;;;;;;-3.42;100.00;101851.50;5068026;28;20490;-79
2024/01/19 08:26:39;;;;;;;22.60;12.32;;;;;;;-3.41;100.00;101854.94;5067636;28;20032;-79
2024/01/19 08:29:04;;;;;;;19.98;11.07;;;;;;;-3.38;100.00;101855.66;5067840;28;20078;-79
2024/01/19 08:31:32;;;;;;;20.83;12.68;;;;;;;-3.26;100.00;101861.13;5066398;28;20032;-79
2024/01/19 08:33:58;;;;;;;19.48;11.57;;;;;;;-3.21;100.00;101861.72;5068110;28;20075;-81
2024/01/19 08:36:26;;;;;;;23.15;14.40;;;;;;;-3.24;100.00;101851.44;5067138;28;20056;-81
2024/01/19 08:38:52;;;;;;;19.98;12.32;;;;;;;-3.19;100.00;101862.50;5067816;28;20043;-81
2024/01/19 08:41:17;;;;;;;22.05;13.65;;;;;;;-3.05;100.00;101882.59;5067434;28;20024;-78
2024/01/19 08:43:43;;;;;;;21.05;13.73;;;;;;;-3.02;100.00;101880.66;5067852;28;20113;-79
2024/01/19 08:46:08;;;;;;;21.75;13.07;;;;;;;-3.03;100.00;101878.16;5066171;28;20032;-78
2024/01/19 08:48:34;;;;;;;22.17;14.52;;;;;;;-3.01;100.00;101882.38;5067970;28;20036;-78
2024/01/19 08:51:00;;;;;;;23.08;13.20;;;;;;;-2.93;100.00;101885.41;5069614;28;20472;-79
2024/01/19 08:53:27;;;;;;;24.48;12.50;;;;;;;-2.85;100.00;101895.41;5067704;28;20024;-79
2024/01/19 08:55:52;;;;;;;22.42;12.93;;;;;;;-2.77;100.00;101893.22;5068765;28;20523;-79
2024/01/19 08:58:18;;;;;;;20.90;12.45;;;;;;;-2.64;100.00;101901.22;5068095;28;20033;-79
2024/01/19 09:00:43;;;;;;;24.30;11.90;;;;;;;-2.56;100.00;101899.03;5043430;28;20029;-79
2024/01/19 09:03:08;;;;;;;23.58;12.35;;;;;;;-2.54;100.00;101888.47;5067802;28;20028;-79
2024/01/19 09:05:34;;;;;;;22.85;12.40;;;;;;;-2.48;100.00;101888.97;5069498;28;20029;-79
2024/01/19 09:08:00;;;;;;;21.17;11.00;;;;;;;-2.37;100.00;101906.66;5069479;28;20071;-79
2024/01/19 09:10:26;;;;;;;25.02;13.02;;;;;;;-2.46;100.00;101896.75;5067729;28;20047;-79
2024/01/19 09:12:51;;;;;;;25.15;12.27;;;;;;;-2.37;100.00;101905.81;5069487;28;20017;-79
2024/01/19 09:15:17;;;;;;;25.25;12.68;;;;;;;-2.38;100.00;101905.00;5068023;28;20505;-78
2024/01/19 09:17:42;;;;;;;22.85;12.65;;;;;;;-2.22;100.00;101923.25;5069236;28;20586;-78
2024/01/19 09:20:08;;;;;;;22.42;13.63;;;;;;;-2.17;100.00;101925.56;5069217;28;20482;-79
2024/01/19 09:22:33;;;;;;;24.55;13.68;;;;;;;-2.11;100.00;101933.09;5067728;28;20037;-78
2024/01/19 09:24:58;;;;;;;23.08;14.00;;;;;;;-2.08;100.00;101925.91;5068014;28;20082;-79
2024/01/19 09:27:24;;;;;;;22.52;13.00;;;;;;;-2.00;100.00;101941.97;5067408;28;20412;-79
2024/01/19 09:29:49;;;;;;;25.73;13.73;;;;;;;-1.96;100.00;101937.44;5069149;28;20452;-79
2024/01/19 09:32:18;;;;;;;22.50;13.90;;;;;;;-1.85;100.00;101944.66;5068994;28;20043;-78
2024/01/19 09:34:45;;;;;;;22.98;11.88;;;;;;;-1.77;100.00;101951.13;5070570;28;20028;-80
2024/01/19 09:37:10;;;;;;;22.27;12.15;;;;;;;-1.69;100.00;101955.06;5072811;28;20017;-79
2024/01/19 09:39:36;;;;;;;22.15;13.02;;;;;;;-1.63;100.00;101954.69;5072744;28;20036;-79
2024/01/19 09:42:23;;;;;;;19.25;12.70;;;;;;;-1.56;100.00;101962.09;5072407;28;20379;-79
2024/01/19 09:45:00;;;;;;;18.75;11.85;;;;;;;-1.46;100.00;101965.00;5070920;28;20028;-78
2024/01/19 09:47:35;;;;;;;21.25;11.80;;;;;;;-1.42;100.00;101960.44;5072494;28;20027;-77
2024/01/19 09:50:05;;;;;;;19.73;11.73;;;;;;;-1.36;100.00;101965.31;5072142;28;20575;-78
2024/01/19 09:52:59;;;;;;;22.83;12.60;;;;;;;-1.24;100.00;101972.41;5070822;28;20648;-78
2024/01/19 09:55:27;;;;;;;20.60;11.38;;;;;;;-1.17;100.00;101980.75;5071029;28;20028;-78
2024/01/19 09:57:54;;;;;;;18.60;11.43;;;;;;;-1.09;100.00;101982.91;5071805;28;20040;-78
2024/01/19 10:00:20;;;;;;;20.80;12.25;;;;;;;-1.07;100.00;101992.34;5070917;28;20391;-78
2024/01/19 10:02:48;;;;;;;19.55;11.70;;;;;;;-1.10;100.00;101976.84;5072003;28;20024;-78
2024/01/19 10:05:15;;;;;;;20.55;11.25;;;;;;;-0.95;100.00;101988.97;5071596;28;20151;-79
2024/01/19 10:07:55;;;;;;;18.88;11.13;;;;;;;-0.99;100.00;101978.78;5056120;28;20020;-78
2024/01/19 10:10:20;;;;;;;18.50;11.02;;;;;;;-0.84;100.00;101997.94;5071706;28;20476;-80
2024/01/19 10:12:46;;;;;;;19.77;10.98;;;;;;;-0.74;100.00;102005.13;5072007;28;20036;-78
2024/01/19 10:15:14;;;;;;;18.35;10.45;;;;;;;-0.66;100.00;102009.91;5071665;28;20519;-78
2024/01/19 10:17:41;;;;;;;16.58;9.80;;;;;;;-0.60;100.00;102006.91;5071343;28;20028;-79
2024/01/19 10:20:10;;;;;;;20.30;10.95;;;;;;;-0.54;100.00;102017.00;5071702;28;20043;-79
2024/01/19 10:22:36;;;;;;;20.60;10.45;;;;;;;-0.46;100.00;102006.88;5071607;28;20135;-79
2024/01/19 10:25:13;;;;;;;17.75;11.18;;;;;;;-0.40;100.00;102005.66;5071503;28;20512;-79
2024/01/19 10:27:41;;;;;;;19.95;11.32;;;;;;;-0.32;100.00;102005.16;5071040;28;20510;-79
2024/01/19 10:30:12;;;;;;;17.13;10.38;;;;;;;-0.26;100.00;102008.25;5071405;28;20020;-79
2024/01/19 10:32:39;;;;;;;18.65;10.60;;;;;;;-0.19;100.00;102007.84;5070926;28;20032;-78
2024/01/19 10:35:11;;;;;;;22.42;13.48;;;;;;;-0.14;100.00;102011.88;5071586;28;20112;-78
2024/01/19 10:37:37;;;;;;;21.98;11.55;;;;;;;-0.07;100.00;102015.78;5071306;28;20028;-79
2024/01/19 10:40:22;;;;;;;19.65;12.40;;;;;;;0.01;100.00;102015.28;5071542;28;20028;-79
2024/01/19 10:42:59;;;;;;;16.55;11.05;;;;;;;0.05;100.00;102010.69;5071419;28;20024;-79
2024/01/19 10:45:29;;;;;;;15.52;8.60;;;;;;;0.05;100.00;102008.06;5069973;28;20483;-79
2024/01/19 10:48:00;;;;;;;17.05;11.13;;;;;;;0.14;100.00;102018.78;5071144;28;20044;-79
2024/01/19 10:50:28;;;;;;;17.02;11.10;;;;;;;0.17;100.00;102018.59;5070999;28;20039;-79
2024/01/19 10:52:55;;;;;;;23.10;11.07;;;;;;;0.24;100.00;102012.94;5070152;28;20062;-79
2024/01/19 10:55:21;;;;;;;17.08;9.48;;;;;;;0.33;100.00;102026.28;5071201;28;20020;-79
2024/01/19 10:57:57;;;;;;;19.75;10.68;;;;;;;0.39;100.00;102020.66;5071426;28;20118;-79
2024/01/19 11:00:26;;;;;;;16.67;9.85;;;;;;;0.46;100.00;102022.88;5069802;28;20028;-79